Fredericksburg, TX

6:11 PM CDT on August 02, 2015 (GMT -0500)
KNOPP SCHOOL RD | | Change Station
CLOSE
Current Station
Personal Weather Station
Location: Fredericksburg, TX
Elevation: 1752 ft
Nearby Weather Stations

Elev 1752 ft 30.33 °N, 98.80 °W | Updated 13 minutes ago

Clear
Clear
96.3 °F
Feels Like 95 °F
N
3.1
Wind Variable Wind from South

Today
High -- | Low -- °F
--% Chance of Precip.
Yesterday
High -- | Low -- °F
Precip. -- in
6:54 AM 8:28 PM
Waning Gibbous, 91% visible
Pressure 29.92 in
Visibility 10.0 miles
Clouds Clear
Heat Index 95 °F
Dew Point 57 °F
Humidity 27%
Rainfall 0.00 in
Snow Depth Not available.
UV 3 out of 12
Pollen 5.50 out of 12
Air Quality Not available.
Flu Activity Not available.
METAR KT82 022255Z AUTO 00000KT 10SM CLR 34/14 A2992 RMK AO2 T03380137

More Conditions Fewer Conditions

Pressure 29.92 in
Visibility 10.0 miles
Clouds Clear
Heat Index 95 °F
Dew Point 57 °F
Humidity 27%
Rainfall 0.00 in
Snow Depth Not available.
UV 3 out of 12
Pollen 5.50 out of 12
Air Quality Not available.
Flu Activity Not available.
METAR KT82 022255Z AUTO 00000KT 10SM CLR 34/14 A2992 RMK AO2 T03380137

More Conditions Fewer Conditions

10-Day Weather Forecast

×

Almanac

Astronomy

Aug. 02, 2015 Rise Set
Actual Time
Civil Twilight
Nautical Twilight
Astronomical Twilight
Moon
Length of Visible Light
Length of Day
Tomorrow will be .
, % of the Moon is Illuminated

Today's Extremes

State Highs State Lows

Community

WunderPhotos

Upload Photos

1,843,408 photos uploaded!

WunderBlogs® & News

Nearby

Air Quality

  Air Quality AQ Index Pollutant
Not available.

Snow Depth

Station Depth Elevation

Earthquake Activity

City Distance Mag. Time & Date
Minimum magnitude displayed is 2.5.

Coastal Water Temperatures

Place Temperature

Stations

Nearby Weather Stations

Station Location Temp. Windchill Dew Point Humidity Wind Precip. Elev Updated Type